sensor_id;sensor_type;location;lat;lon;timestamp;P1;durP1;ratioP1;P2;durP2;ratioP2
5391;SDS011;2719;53.624;9.786;2022-12-18T00:00:07;9.18;;;3.55;;
5391;SDS011;2719;53.624;9.786;2022-12-18T00:02:34;6.35;;;3.63;;
5391;SDS011;2719;53.624;9.786;2022-12-18T00:05:01;9.85;;;4.75;;
5391;SDS011;2719;53.624;9.786;2022-12-18T00:07:28;10.25;;;3.88;;
5391;SDS011;2719;53.624;9.786;2022-12-18T00:09:54;7.45;;;3.35;;
5391;SDS011;2719;53.624;9.786;2022-12-18T00:12:21;5.95;;;3.58;;
5391;SDS011;2719;53.624;9.786;2022-12-18T00:14:49;5.60;;;3.30;;
5391;SDS011;2719;53.624;9.786;2022-12-18T00:17:15;12.05;;;3.85;;
5391;SDS011;2719;53.624;9.786;2022-12-18T00:19:42;9.02;;;3.60;;
5391;SDS011;2719;53.624;9.786;2022-12-18T00:22:09;9.00;;;3.70;;
5391;SDS011;2719;53.624;9.786;2022-12-18T00:24:35;8.82;;;3.65;;
5391;SDS011;2719;53.624;9.786;2022-12-18T00:27:02;10.30;;;3.40;;
5391;SDS011;2719;53.624;9.786;2022-12-18T00:29:29;15.85;;;3.90;;
5391;SDS011;2719;53.624;9.786;2022-12-18T00:31:57;8.48;;;3.08;;
5391;SDS011;2719;53.624;9.786;2022-12-18T00:34:23;10.63;;;3.78;;
5391;SDS011;2719;53.624;9.786;2022-12-18T00:36:50;9.60;;;3.92;;
5391;SDS011;2719;53.624;9.786;2022-12-18T00:39:16;17.20;;;3.85;;
5391;SDS011;2719;53.624;9.786;2022-12-18T00:41:43;5.03;;;3.53;;
5391;SDS011;2719;53.624;9.786;2022-12-18T00:44:28;6.85;;;3.40;;
5391;SDS011;2719;53.624;9.786;2022-12-18T00:46:54;5.97;;;3.15;;
5391;SDS011;2719;53.624;9.786;2022-12-18T00:49:22;6.50;;;3.88;;
5391;SDS011;2719;53.624;9.786;2022-12-18T00:51:49;7.10;;;3.63;;
5391;SDS011;2719;53.624;9.786;2022-12-18T00:54:16;11.35;;;3.28;;
5391;SDS011;2719;53.624;9.786;2022-12-18T00:56:43;10.13;;;3.40;;
5391;SDS011;2719;53.624;9.786;2022-12-18T00:59:10;15.32;;;3.05;;
5391;SDS011;2719;53.624;9.786;2022-12-18T01:01:36;4.88;;;2.88;;
5391;SDS011;2719;53.624;9.786;2022-12-18T01:04:05;11.02;;;4.85;;
5391;SDS011;2719;53.624;9.786;2022-12-18T01:06:31;12.77;;;3.25;;
5391;SDS011;2719;53.624;9.786;2022-12-18T01:08:58;8.60;;;3.60;;
5391;SDS011;2719;53.624;9.786;2022-12-18T01:11:25;8.55;;;4.05;;
5391;SDS011;2719;53.624;9.786;2022-12-18T01:13:52;12.43;;;3.63;;
5391;SDS011;2719;53.624;9.786;2022-12-18T01:16:19;7.97;;;3.33;;
5391;SDS011;2719;53.624;9.786;2022-12-18T01:18:46;11.23;;;3.08;;
5391;SDS011;2719;53.624;9.786;2022-12-18T01:21:15;9.63;;;3.30;;
5391;SDS011;2719;53.624;9.786;2022-12-18T01:23:45;8.75;;;3.85;;
5391;SDS011;2719;53.624;9.786;2022-12-18T01:26:13;7.72;;;4.05;;
5391;SDS011;2719;53.624;9.786;2022-12-18T01:28:41;8.77;;;3.00;;
5391;SDS011;2719;53.624;9.786;2022-12-18T01:31:09;11.40;;;3.90;;
5391;SDS011;2719;53.624;9.786;2022-12-18T01:33:40;7.78;;;2.63;;
5391;SDS011;2719;53.624;9.786;2022-12-18T01:36:07;14.82;;;4.47;;
5391;SDS011;2719;53.624;9.786;2022-12-18T01:38:35;9.50;;;3.20;;
5391;SDS011;2719;53.624;9.786;2022-12-18T01:41:02;9.57;;;3.70;;
5391;SDS011;2719;53.624;9.786;2022-12-18T01:43:41;7.40;;;3.08;;
5391;SDS011;2719;53.624;9.786;2022-12-18T01:46:10;12.10;;;3.58;;
5391;SDS011;2719;53.624;9.786;2022-12-18T01:48:37;6.25;;;3.05;;
5391;SDS011;2719;53.624;9.786;2022-12-18T01:51:06;7.50;;;2.97;;
5391;SDS011;2719;53.624;9.786;2022-12-18T01:53:37;9.02;;;3.50;;
5391;SDS011;2719;53.624;9.786;2022-12-18T01:56:06;11.63;;;2.80;;
5391;SDS011;2719;53.624;9.786;2022-12-18T01:58:35;7.35;;;2.92;;
5391;SDS011;2719;53.624;9.786;2022-12-18T02:01:07;13.30;;;3.72;;
5391;SDS011;2719;53.624;9.786;2022-12-18T02:03:34;7.30;;;3.38;;
5391;SDS011;2719;53.624;9.786;2022-12-18T02:06:02;9.60;;;3.95;;
5391;SDS011;2719;53.624;9.786;2022-12-18T02:08:39;10.43;;;4.03;;
5391;SDS011;2719;53.624;9.786;2022-12-18T02:11:12;7.95;;;3.75;;
5391;SDS011;2719;53.624;9.786;2022-12-18T02:13:46;10.85;;;3.22;;
5391;SDS011;2719;53.624;9.786;2022-12-18T02:16:24;7.30;;;3.20;;
5391;SDS011;2719;53.624;9.786;2022-12-18T02:18:56;16.88;;;4.40;;
5391;SDS011;2719;53.624;9.786;2022-12-18T02:21:28;10.45;;;2.92;;
5391;SDS011;2719;53.624;9.786;2022-12-18T02:24:14;11.60;;;3.30;;
5391;SDS011;2719;53.624;9.786;2022-12-18T02:26:52;8.73;;;3.60;;
5391;SDS011;2719;53.624;9.786;2022-12-18T02:29:22;7.60;;;3.47;;
5391;SDS011;2719;53.624;9.786;2022-12-18T02:31:54;7.63;;;3.22;;
5391;SDS011;2719;53.624;9.786;2022-12-18T02:34:26;10.85;;;3.20;;
5391;SDS011;2719;53.624;9.786;2022-12-18T02:36:56;5.18;;;2.67;;
5391;SDS011;2719;53.624;9.786;2022-12-18T02:39:25;7.40;;;3.95;;
5391;SDS011;2719;53.624;9.786;2022-12-18T02:41:55;11.60;;;3.78;;
5391;SDS011;2719;53.624;9.786;2022-12-18T02:44:22;12.93;;;4.38;;
5391;SDS011;2719;53.624;9.786;2022-12-18T02:46:50;10.82;;;3.08;;
5391;SDS011;2719;53.624;9.786;2022-12-18T02:49:22;5.38;;;2.85;;
5391;SDS011;2719;53.624;9.786;2022-12-18T02:51:56;9.38;;;3.40;;
5391;SDS011;2719;53.624;9.786;2022-12-18T02:54:36;5.90;;;3.47;;
5391;SDS011;2719;53.624;9.786;2022-12-18T02:57:13;7.20;;;3.17;;
5391;SDS011;2719;53.624;9.786;2022-12-18T02:59:46;7.63;;;4.43;;
5391;SDS011;2719;53.624;9.786;2022-12-18T03:02:23;16.88;;;4.53;;
5391;SDS011;2719;53.624;9.786;2022-12-18T03:04:54;10.43;;;3.45;;
5391;SDS011;2719;53.624;9.786;2022-12-18T03:07:27;9.85;;;2.97;;
5391;SDS011;2719;53.624;9.786;2022-12-18T03:10:03;9.73;;;3.63;;
5391;SDS011;2719;53.624;9.786;2022-12-18T03:12:34;9.15;;;4.10;;
5391;SDS011;2719;53.624;9.786;2022-12-18T03:15:04;6.82;;;3.10;;
5391;SDS011;2719;53.624;9.786;2022-12-18T03:17:35;8.68;;;3.53;;
5391;SDS011;2719;53.624;9.786;2022-12-18T03:20:05;12.77;;;3.22;;
5391;SDS011;2719;53.624;9.786;2022-12-18T03:22:36;8.45;;;3.55;;
5391;SDS011;2719;53.624;9.786;2022-12-18T03:25:06;8.10;;;3.28;;
5391;SDS011;2719;53.624;9.786;2022-12-18T03:27:38;14.85;;;3.30;;
5391;SDS011;2719;53.624;9.786;2022-12-18T03:30:11;6.40;;;3.20;;
5391;SDS011;2719;53.624;9.786;2022-12-18T03:32:40;11.63;;;3.53;;
5391;SDS011;2719;53.624;9.786;2022-12-18T03:35:13;15.38;;;3.83;;
5391;SDS011;2719;53.624;9.786;2022-12-18T03:37:45;8.68;;;3.35;;
5391;SDS011;2719;53.624;9.786;2022-12-18T03:40:12;4.80;;;2.55;;
5391;SDS011;2719;53.624;9.786;2022-12-18T03:42:42;11.02;;;3.03;;
5391;SDS011;2719;53.624;9.786;2022-12-18T03:45:17;4.03;;;2.35;;
5391;SDS011;2719;53.624;9.786;2022-12-18T03:47:49;7.63;;;3.22;;
5391;SDS011;2719;53.624;9.786;2022-12-18T03:50:26;9.93;;;2.63;;
5391;SDS011;2719;53.624;9.786;2022-12-18T03:53:02;6.47;;;2.88;;
5391;SDS011;2719;53.624;9.786;2022-12-18T03:55:35;7.68;;;3.25;;
5391;SDS011;2719;53.624;9.786;2022-12-18T03:58:04;6.55;;;2.85;;
5391;SDS011;2719;53.624;9.786;2022-12-18T04:00:33;11.18;;;2.78;;
5391;SDS011;2719;53.624;9.786;2022-12-18T04:03:00;12.68;;;3.55;;
5391;SDS011;2719;53.624;9.786;2022-12-18T04:05:29;11.27;;;4.03;;
5391;SDS011;2719;53.624;9.786;2022-12-18T04:07:59;7.90;;;3.85;;
5391;SDS011;2719;53.624;9.786;2022-12-18T04:10:27;8.20;;;3.10;;
5391;SDS011;2719;53.624;9.786;2022-12-18T04:12:55;6.75;;;2.67;;
5391;SDS011;2719;53.624;9.786;2022-12-18T04:15:24;5.80;;;2.97;;
5391;SDS011;2719;53.624;9.786;2022-12-18T04:17:50;10.80;;;3.33;;
5391;SDS011;2719;53.624;9.786;2022-12-18T04:20:17;8.13;;;4.00;;
5391;SDS011;2719;53.624;9.786;2022-12-18T04:22:44;5.30;;;3.08;;
5391;SDS011;2719;53.624;9.786;2022-12-18T04:25:11;4.80;;;2.78;;
5391;SDS011;2719;53.624;9.786;2022-12-18T04:27:38;5.57;;;2.65;;
5391;SDS011;2719;53.624;9.786;2022-12-18T04:30:06;9.50;;;4.65;;
5391;SDS011;2719;53.624;9.786;2022-12-18T04:32:34;7.57;;;2.92;;
5391;SDS011;2719;53.624;9.786;2022-12-18T04:35:01;6.20;;;3.28;;
5391;SDS011;2719;53.624;9.786;2022-12-18T04:37:31;9.55;;;4.00;;
5391;SDS011;2719;53.624;9.786;2022-12-18T04:39:58;7.80;;;3.83;;
5391;SDS011;2719;53.624;9.786;2022-12-18T04:42:25;8.20;;;3.15;;
5391;SDS011;2719;53.624;9.786;2022-12-18T04:44:51;8.32;;;3.42;;
5391;SDS011;2719;53.624;9.786;2022-12-18T04:47:18;12.82;;;3.50;;
5391;SDS011;2719;53.624;9.786;2022-12-18T04:49:46;7.75;;;3.75;;
5391;SDS011;2719;53.624;9.786;2022-12-18T04:52:12;8.10;;;3.63;;
5391;SDS011;2719;53.624;9.786;2022-12-18T04:54:39;6.43;;;2.70;;
5391;SDS011;2719;53.624;9.786;2022-12-18T04:57:06;7.40;;;3.70;;
5391;SDS011;2719;53.624;9.786;2022-12-18T04:59:32;9.90;;;3.20;;
5391;SDS011;2719;53.624;9.786;2022-12-18T05:01:59;11.02;;;4.00;;
5391;SDS011;2719;53.624;9.786;2022-12-18T05:04:25;8.23;;;3.92;;
5391;SDS011;2719;53.624;9.786;2022-12-18T05:06:53;8.65;;;3.33;;
5391;SDS011;2719;53.624;9.786;2022-12-18T05:09:20;6.18;;;2.97;;
5391;SDS011;2719;53.624;9.786;2022-12-18T05:11:47;7.72;;;4.00;;
5391;SDS011;2719;53.624;9.786;2022-12-18T05:14:13;5.82;;;2.97;;
5391;SDS011;2719;53.624;9.786;2022-12-18T05:16:40;11.65;;;2.72;;
5391;SDS011;2719;53.624;9.786;2022-12-18T05:19:07;5.93;;;2.70;;
5391;SDS011;2719;53.624;9.786;2022-12-18T05:21:33;7.45;;;2.78;;
5391;SDS011;2719;53.624;9.786;2022-12-18T05:24:01;9.10;;;2.83;;
5391;SDS011;2719;53.624;9.786;2022-12-18T05:26:28;13.10;;;3.92;;
5391;SDS011;2719;53.624;9.786;2022-12-18T05:28:55;6.63;;;2.95;;
5391;SDS011;2719;53.624;9.786;2022-12-18T05:31:22;6.82;;;3.03;;
5391;SDS011;2719;53.624;9.786;2022-12-18T05:33:48;8.65;;;3.17;;
5391;SDS011;2719;53.624;9.786;2022-12-18T05:36:15;8.73;;;3.67;;
5391;SDS011;2719;53.624;9.786;2022-12-18T05:38:41;7.68;;;3.00;;
5391;SDS011;2719;53.624;9.786;2022-12-18T05:41:09;6.13;;;2.88;;
5391;SDS011;2719;53.624;9.786;2022-12-18T05:43:37;7.28;;;3.35;;
5391;SDS011;2719;53.624;9.786;2022-12-18T05:46:05;9.73;;;3.15;;
5391;SDS011;2719;53.624;9.786;2022-12-18T05:48:32;6.00;;;2.45;;
5391;SDS011;2719;53.624;9.786;2022-12-18T05:51:03;6.05;;;2.88;;
5391;SDS011;2719;53.624;9.786;2022-12-18T05:53:32;9.23;;;3.20;;
5391;SDS011;2719;53.624;9.786;2022-12-18T05:55:59;7.43;;;3.63;;
5391;SDS011;2719;53.624;9.786;2022-12-18T05:58:28;15.95;;;3.42;;
5391;SDS011;2719;53.624;9.786;2022-12-18T06:00:56;8.23;;;3.40;;
5391;SDS011;2719;53.624;9.786;2022-12-18T06:03:24;6.07;;;3.60;;
5391;SDS011;2719;53.624;9.786;2022-12-18T06:05:50;13.23;;;3.97;;
5391;SDS011;2719;53.624;9.786;2022-12-18T06:08:17;5.82;;;3.53;;
5391;SDS011;2719;53.624;9.786;2022-12-18T06:10:49;4.35;;;3.38;;
5391;SDS011;2719;53.624;9.786;2022-12-18T06:13:18;10.20;;;4.03;;
5391;SDS011;2719;53.624;9.786;2022-12-18T06:15:46;10.93;;;3.80;;
5391;SDS011;2719;53.624;9.786;2022-12-18T06:18:13;7.90;;;3.80;;
5391;SDS011;2719;53.624;9.786;2022-12-18T06:20:40;14.10;;;5.18;;
5391;SDS011;2719;53.624;9.786;2022-12-18T06:23:07;6.85;;;3.45;;
5391;SDS011;2719;53.624;9.786;2022-12-18T06:25:36;8.80;;;4.32;;
5391;SDS011;2719;53.624;9.786;2022-12-18T06:28:05;7.95;;;3.47;;
5391;SDS011;2719;53.624;9.786;2022-12-18T06:30:32;14.10;;;4.28;;
5391;SDS011;2719;53.624;9.786;2022-12-18T06:33:00;8.95;;;5.00;;
5391;SDS011;2719;53.624;9.786;2022-12-18T06:35:26;8.38;;;4.07;;
5391;SDS011;2719;53.624;9.786;2022-12-18T06:37:53;6.00;;;2.92;;
5391;SDS011;2719;53.624;9.786;2022-12-18T06:40:20;8.15;;;3.00;;
5391;SDS011;2719;53.624;9.786;2022-12-18T06:42:47;5.25;;;2.65;;
5391;SDS011;2719;53.624;9.786;2022-12-18T06:45:13;9.45;;;3.15;;
5391;SDS011;2719;53.624;9.786;2022-12-18T06:47:40;9.25;;;3.97;;
5391;SDS011;2719;53.624;9.786;2022-12-18T06:50:08;6.45;;;3.55;;
5391;SDS011;2719;53.624;9.786;2022-12-18T06:52:35;8.57;;;2.90;;
5391;SDS011;2719;53.624;9.786;2022-12-18T06:55:04;8.38;;;3.40;;
5391;SDS011;2719;53.624;9.786;2022-12-18T06:57:35;5.03;;;3.00;;
5391;SDS011;2719;53.624;9.786;2022-12-18T07:00:02;9.68;;;3.60;;
5391;SDS011;2719;53.624;9.786;2022-12-18T07:02:30;7.30;;;3.83;;
5391;SDS011;2719;53.624;9.786;2022-12-18T07:04:57;5.85;;;2.95;;
5391;SDS011;2719;53.624;9.786;2022-12-18T07:07:26;9.90;;;3.42;;
5391;SDS011;2719;53.624;9.786;2022-12-18T07:09:53;5.55;;;2.53;;
5391;SDS011;2719;53.624;9.786;2022-12-18T07:12:19;11.15;;;4.00;;
5391;SDS011;2719;53.624;9.786;2022-12-18T07:14:46;8.30;;;2.97;;
5391;SDS011;2719;53.624;9.786;2022-12-18T07:17:13;9.27;;;3.53;;
5391;SDS011;2719;53.624;9.786;2022-12-18T07:19:39;8.52;;;3.00;;
5391;SDS011;2719;53.624;9.786;2022-12-18T07:22:06;8.68;;;3.72;;
5391;SDS011;2719;53.624;9.786;2022-12-18T07:24:34;7.95;;;3.47;;
5391;SDS011;2719;53.624;9.786;2022-12-18T07:27:01;24.67;;;2.90;;
5391;SDS011;2719;53.624;9.786;2022-12-18T07:29:28;7.00;;;3.45;;
5391;SDS011;2719;53.624;9.786;2022-12-18T07:31:55;7.50;;;3.20;;
5391;SDS011;2719;53.624;9.786;2022-12-18T07:34:22;8.77;;;2.90;;
5391;SDS011;2719;53.624;9.786;2022-12-18T07:36:51;7.88;;;3.67;;
5391;SDS011;2719;53.624;9.786;2022-12-18T07:39:28;8.05;;;3.35;;
5391;SDS011;2719;53.624;9.786;2022-12-18T07:41:56;11.40;;;3.33;;
5391;SDS011;2719;53.624;9.786;2022-12-18T07:44:41;4.90;;;2.97;;
5391;SDS011;2719;53.624;9.786;2022-12-18T07:47:07;8.63;;;3.63;;
5391;SDS011;2719;53.624;9.786;2022-12-18T07:49:34;9.48;;;4.47;;
5391;SDS011;2719;53.624;9.786;2022-12-18T07:52:01;10.75;;;3.95;;
5391;SDS011;2719;53.624;9.786;2022-12-18T07:54:28;7.68;;;3.90;;
5391;SDS011;2719;53.624;9.786;2022-12-18T07:56:54;9.60;;;3.70;;
5391;SDS011;2719;53.624;9.786;2022-12-18T07:59:22;9.32;;;4.40;;
5391;SDS011;2719;53.624;9.786;2022-12-18T08:01:49;8.45;;;4.10;;
5391;SDS011;2719;53.624;9.786;2022-12-18T08:04:15;12.75;;;4.18;;
5391;SDS011;2719;53.624;9.786;2022-12-18T08:06:42;9.63;;;3.08;;
5391;SDS011;2719;53.624;9.786;2022-12-18T08:09:09;9.38;;;4.03;;
5391;SDS011;2719;53.624;9.786;2022-12-18T08:11:35;13.73;;;3.33;;
5391;SDS011;2719;53.624;9.786;2022-12-18T08:14:04;15.23;;;5.47;;
5391;SDS011;2719;53.624;9.786;2022-12-18T08:16:30;12.48;;;4.85;;
5391;SDS011;2719;53.624;9.786;2022-12-18T08:18:57;11.57;;;4.65;;
5391;SDS011;2719;53.624;9.786;2022-12-18T08:21:24;13.48;;;4.38;;
5391;SDS011;2719;53.624;9.786;2022-12-18T08:23:53;10.25;;;4.28;;
5391;SDS011;2719;53.624;9.786;2022-12-18T08:26:21;21.05;;;5.13;;
5391;SDS011;2719;53.624;9.786;2022-12-18T08:28:48;16.27;;;4.50;;
5391;SDS011;2719;53.624;9.786;2022-12-18T08:31:17;8.27;;;4.60;;
5391;SDS011;2719;53.624;9.786;2022-12-18T08:33:44;6.63;;;3.17;;
5391;SDS011;2719;53.624;9.786;2022-12-18T08:36:10;10.93;;;3.72;;
5391;SDS011;2719;53.624;9.786;2022-12-18T08:38:37;8.88;;;3.45;;
5391;SDS011;2719;53.624;9.786;2022-12-18T08:41:04;8.25;;;3.75;;
5391;SDS011;2719;53.624;9.786;2022-12-18T08:43:33;12.60;;;3.88;;
5391;SDS011;2719;53.624;9.786;2022-12-18T08:46:21;14.25;;;4.30;;
5391;SDS011;2719;53.624;9.786;2022-12-18T08:48:50;7.25;;;3.33;;
5391;SDS011;2719;53.624;9.786;2022-12-18T08:51:18;10.38;;;4.32;;
5391;SDS011;2719;53.624;9.786;2022-12-18T08:53:45;7.45;;;3.15;;
5391;SDS011;2719;53.624;9.786;2022-12-18T08:56:12;10.50;;;3.70;;
5391;SDS011;2719;53.624;9.786;2022-12-18T08:58:39;7.85;;;3.45;;
5391;SDS011;2719;53.624;9.786;2022-12-18T09:01:07;8.90;;;3.35;;
5391;SDS011;2719;53.624;9.786;2022-12-18T09:03:36;12.68;;;4.40;;
5391;SDS011;2719;53.624;9.786;2022-12-18T09:06:03;10.20;;;4.00;;
5391;SDS011;2719;53.624;9.786;2022-12-18T09:08:30;11.73;;;4.95;;
5391;SDS011;2719;53.624;9.786;2022-12-18T09:11:00;8.05;;;3.65;;
5391;SDS011;2719;53.624;9.786;2022-12-18T09:13:26;11.82;;;4.78;;
5391;SDS011;2719;53.624;9.786;2022-12-18T09:15:54;10.10;;;4.78;;
5391;SDS011;2719;53.624;9.786;2022-12-18T09:18:22;8.25;;;3.85;;
5391;SDS011;2719;53.624;9.786;2022-12-18T09:20:51;7.28;;;3.80;;
5391;SDS011;2719;53.624;9.786;2022-12-18T09:23:17;11.90;;;4.50;;
5391;SDS011;2719;53.624;9.786;2022-12-18T09:25:44;8.70;;;3.60;;
5391;SDS011;2719;53.624;9.786;2022-12-18T09:28:12;9.52;;;4.35;;
5391;SDS011;2719;53.624;9.786;2022-12-18T09:30:40;13.25;;;4.72;;
5391;SDS011;2719;53.624;9.786;2022-12-18T09:33:08;9.15;;;3.75;;
5391;SDS011;2719;53.624;9.786;2022-12-18T09:35:35;16.83;;;5.57;;
5391;SDS011;2719;53.624;9.786;2022-12-18T09:38:07;7.10;;;2.58;;
5391;SDS011;2719;53.624;9.786;2022-12-18T09:40:39;8.25;;;3.80;;
5391;SDS011;2719;53.624;9.786;2022-12-18T09:43:10;15.38;;;4.28;;
5391;SDS011;2719;53.624;9.786;2022-12-18T09:45:43;7.18;;;3.75;;
5391;SDS011;2719;53.624;9.786;2022-12-18T09:48:14;4.90;;;2.85;;
5391;SDS011;2719;53.624;9.786;2022-12-18T09:50:45;13.07;;;4.90;;
5391;SDS011;2719;53.624;9.786;2022-12-18T09:53:15;11.05;;;3.53;;
5391;SDS011;2719;53.624;9.786;2022-12-18T09:55:45;6.47;;;3.15;;
5391;SDS011;2719;53.624;9.786;2022-12-18T09:58:14;15.45;;;3.88;;
5391;SDS011;2719;53.624;9.786;2022-12-18T10:00:45;13.60;;;3.90;;
5391;SDS011;2719;53.624;9.786;2022-12-18T10:03:13;14.65;;;3.88;;
5391;SDS011;2719;53.624;9.786;2022-12-18T10:05:43;15.30;;;3.65;;
5391;SDS011;2719;53.624;9.786;2022-12-18T10:08:21;14.48;;;4.60;;
5391;SDS011;2719;53.624;9.786;2022-12-18T10:10:52;6.43;;;3.70;;
5391;SDS011;2719;53.624;9.786;2022-12-18T10:13:24;12.82;;;3.28;;
5391;SDS011;2719;53.624;9.786;2022-12-18T10:16:02;10.52;;;4.22;;
5391;SDS011;2719;53.624;9.786;2022-12-18T10:18:42;6.90;;;2.95;;
5391;SDS011;2719;53.624;9.786;2022-12-18T10:21:28;11.10;;;3.83;;
5391;SDS011;2719;53.624;9.786;2022-12-18T10:24:00;10.02;;;3.40;;
5391;SDS011;2719;53.624;9.786;2022-12-18T10:26:34;8.25;;;3.72;;
5391;SDS011;2719;53.624;9.786;2022-12-18T10:29:01;15.55;;;4.35;;
5391;SDS011;2719;53.624;9.786;2022-12-18T10:31:30;7.00;;;2.67;;
5391;SDS011;2719;53.624;9.786;2022-12-18T10:33:56;5.90;;;2.92;;
5391;SDS011;2719;53.624;9.786;2022-12-18T10:36:23;9.77;;;3.90;;
5391;SDS011;2719;53.624;9.786;2022-12-18T10:38:50;8.43;;;3.77;;
5391;SDS011;2719;53.624;9.786;2022-12-18T10:41:25;11.07;;;4.25;;
5391;SDS011;2719;53.624;9.786;2022-12-18T10:46:37;7.38;;;3.67;;
5391;SDS011;2719;53.624;9.786;2022-12-18T10:49:04;11.68;;;4.18;;
5391;SDS011;2719;53.624;9.786;2022-12-18T10:51:31;12.93;;;4.50;;
5391;SDS011;2719;53.624;9.786;2022-12-18T10:54:00;7.93;;;4.03;;
5391;SDS011;2719;53.624;9.786;2022-12-18T10:56:31;7.50;;;4.03;;
5391;SDS011;2719;53.624;9.786;2022-12-18T10:59:01;8.23;;;4.35;;
5391;SDS011;2719;53.624;9.786;2022-12-18T11:01:32;10.38;;;4.85;;
5391;SDS011;2719;53.624;9.786;2022-12-18T11:04:15;11.13;;;4.18;;
5391;SDS011;2719;53.624;9.786;2022-12-18T11:06:52;6.20;;;3.70;;
5391;SDS011;2719;53.624;9.786;2022-12-18T11:09:24;9.30;;;3.47;;
5391;SDS011;2719;53.624;9.786;2022-12-18T11:11:54;14.23;;;3.70;;
5391;SDS011;2719;53.624;9.786;2022-12-18T11:14:24;9.07;;;3.70;;
5391;SDS011;2719;53.624;9.786;2022-12-18T11:16:54;12.98;;;3.70;;
5391;SDS011;2719;53.624;9.786;2022-12-18T11:19:26;13.50;;;4.25;;
5391;SDS011;2719;53.624;9.786;2022-12-18T11:21:57;7.45;;;3.75;;
5391;SDS011;2719;53.624;9.786;2022-12-18T11:24:27;7.13;;;3.20;;
5391;SDS011;2719;53.624;9.786;2022-12-18T11:26:59;4.65;;;2.60;;
5391;SDS011;2719;53.624;9.786;2022-12-18T11:29:30;9.23;;;3.58;;
5391;SDS011;2719;53.624;9.786;2022-12-18T11:32:14;5.35;;;2.78;;
5391;SDS011;2719;53.624;9.786;2022-12-18T11:34:54;7.53;;;3.50;;
5391;SDS011;2719;53.624;9.786;2022-12-18T11:37:25;6.18;;;4.07;;
5391;SDS011;2719;53.624;9.786;2022-12-18T11:39:54;13.88;;;3.55;;
5391;SDS011;2719;53.624;9.786;2022-12-18T11:42:27;6.40;;;3.83;;
5391;SDS011;2719;53.624;9.786;2022-12-18T11:45:02;9.30;;;3.30;;
5391;SDS011;2719;53.624;9.786;2022-12-18T11:47:44;9.10;;;3.90;;
5391;SDS011;2719;53.624;9.786;2022-12-18T11:50:16;9.68;;;3.50;;
5391;SDS011;2719;53.624;9.786;2022-12-18T11:52:44;9.13;;;4.10;;
5391;SDS011;2719;53.624;9.786;2022-12-18T11:55:12;8.45;;;3.45;;
5391;SDS011;2719;53.624;9.786;2022-12-18T11:57:44;6.93;;;3.27;;
5391;SDS011;2719;53.624;9.786;2022-12-18T12:00:21;7.37;;;3.23;;
5391;SDS011;2719;53.624;9.786;2022-12-18T12:02:56;6.65;;;3.90;;
5391;SDS011;2719;53.624;9.786;2022-12-18T12:05:42;8.93;;;3.93;;
5391;SDS011;2719;53.624;9.786;2022-12-18T12:08:15;10.90;;;3.80;;
5391;SDS011;2719;53.624;9.786;2022-12-18T12:10:51;10.57;;;3.73;;
5391;SDS011;2719;53.624;9.786;2022-12-18T12:13:26;7.40;;;3.30;;
5391;SDS011;2719;53.624;9.786;2022-12-18T12:16:09;11.33;;;4.43;;
5391;SDS011;2719;53.624;9.786;2022-12-18T12:18:47;13.03;;;3.83;;
5391;SDS011;2719;53.624;9.786;2022-12-18T12:21:28;13.15;;;4.32;;
5391;SDS011;2719;53.624;9.786;2022-12-18T12:24:08;7.22;;;3.85;;
5391;SDS011;2719;53.624;9.786;2022-12-18T12:26:49;12.98;;;5.65;;
5391;SDS011;2719;53.624;9.786;2022-12-18T12:29:28;10.03;;;3.37;;
5391;SDS011;2719;53.624;9.786;2022-12-18T12:32:07;11.33;;;4.07;;
5391;SDS011;2719;53.624;9.786;2022-12-18T12:34:47;6.18;;;3.60;;
5391;SDS011;2719;53.624;9.786;2022-12-18T12:37:24;4.87;;;2.90;;
5391;SDS011;2719;53.624;9.786;2022-12-18T12:39:59;14.93;;;5.50;;
5391;SDS011;2719;53.624;9.786;2022-12-18T12:42:29;14.67;;;5.53;;
5391;SDS011;2719;53.624;9.786;2022-12-18T12:45:21;12.82;;;5.40;;
5391;SDS011;2719;53.624;9.786;2022-12-18T12:47:52;8.05;;;4.00;;
5391;SDS011;2719;53.624;9.786;2022-12-18T12:50:20;10.00;;;4.83;;
5391;SDS011;2719;53.624;9.786;2022-12-18T12:52:49;18.03;;;6.83;;
5391;SDS011;2719;53.624;9.786;2022-12-18T12:55:18;16.57;;;5.67;;
5391;SDS011;2719;53.624;9.786;2022-12-18T12:57:48;12.00;;;5.00;;
5391;SDS011;2719;53.624;9.786;2022-12-18T13:00:24;9.87;;;4.70;;
5391;SDS011;2719;53.624;9.786;2022-12-18T13:02:55;8.07;;;4.17;;
5391;SDS011;2719;53.624;9.786;2022-12-18T13:05:29;12.48;;;5.47;;
5391;SDS011;2719;53.624;9.786;2022-12-18T13:08:01;9.50;;;5.35;;
5391;SDS011;2719;53.624;9.786;2022-12-18T13:10:31;10.90;;;5.05;;
5391;SDS011;2719;53.624;9.786;2022-12-18T13:13:00;10.47;;;5.30;;
5391;SDS011;2719;53.624;9.786;2022-12-18T13:15:30;10.20;;;4.87;;
5391;SDS011;2719;53.624;9.786;2022-12-18T13:18:04;16.57;;;5.00;;
5391;SDS011;2719;53.624;9.786;2022-12-18T13:20:32;14.07;;;5.30;;
5391;SDS011;2719;53.624;9.786;2022-12-18T13:23:01;7.03;;;3.78;;
5391;SDS011;2719;53.624;9.786;2022-12-18T13:25:56;8.68;;;4.40;;
5391;SDS011;2719;53.624;9.786;2022-12-18T13:28:37;19.40;;;4.73;;
5391;SDS011;2719;53.624;9.786;2022-12-18T13:34:20;12.00;;;3.60;;
5391;SDS011;2719;53.624;9.786;2022-12-18T13:36:48;11.77;;;5.75;;
5391;SDS011;2719;53.624;9.786;2022-12-18T13:39:22;25.43;;;5.30;;
5391;SDS011;2719;53.624;9.786;2022-12-18T13:41:51;10.18;;;4.55;;
5391;SDS011;2719;53.624;9.786;2022-12-18T13:44:25;15.67;;;7.50;;
5391;SDS011;2719;53.624;9.786;2022-12-18T13:46:56;8.83;;;4.50;;
5391;SDS011;2719;53.624;9.786;2022-12-18T13:49:24;12.30;;;5.97;;
5391;SDS011;2719;53.624;9.786;2022-12-18T13:51:55;13.10;;;5.50;;
5391;SDS011;2719;53.624;9.786;2022-12-18T13:54:24;13.82;;;4.90;;
5391;SDS011;2719;53.624;9.786;2022-12-18T13:56:56;30.60;;;6.30;;
5391;SDS011;2719;53.624;9.786;2022-12-18T13:59:24;10.75;;;5.45;;
5391;SDS011;2719;53.624;9.786;2022-12-18T14:01:53;13.13;;;6.13;;
5391;SDS011;2719;53.624;9.786;2022-12-18T14:04:23;15.23;;;6.32;;
5391;SDS011;2719;53.624;9.786;2022-12-18T14:06:52;16.45;;;5.68;;
5391;SDS011;2719;53.624;9.786;2022-12-18T14:09:24;13.40;;;6.47;;
5391;SDS011;2719;53.624;9.786;2022-12-18T14:11:52;14.57;;;6.05;;
5391;SDS011;2719;53.624;9.786;2022-12-18T14:14:43;14.63;;;6.97;;
5391;SDS011;2719;53.624;9.786;2022-12-18T14:17:12;16.23;;;6.53;;
5391;SDS011;2719;53.624;9.786;2022-12-18T14:19:43;20.17;;;8.30;;
5391;SDS011;2719;53.624;9.786;2022-12-18T14:22:15;28.02;;;7.68;;
5391;SDS011;2719;53.624;9.786;2022-12-18T14:24:43;22.20;;;8.75;;
5391;SDS011;2719;53.624;9.786;2022-12-18T14:29:56;21.38;;;8.45;;
5391;SDS011;2719;53.624;9.786;2022-12-18T14:32:23;20.80;;;8.40;;
5391;SDS011;2719;53.624;9.786;2022-12-18T14:34:50;18.10;;;7.75;;
5391;SDS011;2719;53.624;9.786;2022-12-18T14:37:20;30.02;;;8.55;;
5391;SDS011;2719;53.624;9.786;2022-12-18T14:39:54;18.93;;;7.70;;
5391;SDS011;2719;53.624;9.786;2022-12-18T14:42:22;18.42;;;8.07;;
5391;SDS011;2719;53.624;9.786;2022-12-18T14:47:55;31.27;;;14.18;;
5391;SDS011;2719;53.624;9.786;2022-12-18T14:50:21;20.50;;;9.00;;
5391;SDS011;2719;53.624;9.786;2022-12-18T14:52:48;20.90;;;8.23;;
5391;SDS011;2719;53.624;9.786;2022-12-18T14:55:16;19.08;;;7.97;;
5391;SDS011;2719;53.624;9.786;2022-12-18T14:57:43;20.75;;;9.50;;
5391;SDS011;2719;53.624;9.786;2022-12-18T15:00:14;23.88;;;9.98;;
5391;SDS011;2719;53.624;9.786;2022-12-18T15:02:45;22.38;;;8.32;;
5391;SDS011;2719;53.624;9.786;2022-12-18T15:05:18;22.23;;;9.00;;
5391;SDS011;2719;53.624;9.786;2022-12-18T15:07:47;25.23;;;8.73;;
5391;SDS011;2719;53.624;9.786;2022-12-18T15:10:15;20.42;;;9.05;;
5391;SDS011;2719;53.624;9.786;2022-12-18T15:12:46;23.08;;;9.40;;
5391;SDS011;2719;53.624;9.786;2022-12-18T15:18:11;23.70;;;8.10;;
5391;SDS011;2719;53.624;9.786;2022-12-18T15:20:41;25.45;;;9.23;;
5391;SDS011;2719;53.624;9.786;2022-12-18T15:23:12;23.85;;;9.35;;
5391;SDS011;2719;53.624;9.786;2022-12-18T15:25:40;24.23;;;9.85;;
5391;SDS011;2719;53.624;9.786;2022-12-18T15:28:15;22.88;;;9.60;;
5391;SDS011;2719;53.624;9.786;2022-12-18T15:30:57;23.30;;;9.70;;
5391;SDS011;2719;53.624;9.786;2022-12-18T15:33:30;21.65;;;8.30;;
5391;SDS011;2719;53.624;9.786;2022-12-18T15:36:00;20.90;;;8.70;;
5391;SDS011;2719;53.624;9.786;2022-12-18T15:38:28;25.77;;;9.82;;
5391;SDS011;2719;53.624;9.786;2022-12-18T15:40:55;19.02;;;9.57;;